createdAt,value
2022-08-22T00:01:52.457Z,20.00
2022-08-22T00:02:58.682Z,20.70
2022-08-22T00:03:01.016Z,21.40
2022-08-22T00:03:03.715Z,23.40
2022-08-22T00:03:12.734Z,20.50
2022-08-22T00:04:29.567Z,19.90
2022-08-22T00:07:08.366Z,19.90
2022-08-22T00:09:48.167Z,19.90
2022-08-22T00:12:22.613Z,19.80
2022-08-22T00:15:02.381Z,19.80
2022-08-22T00:17:40.922Z,19.80
2022-08-22T00:20:14.422Z,19.80
2022-08-22T00:22:51.890Z,19.70
2022-08-22T00:25:45.407Z,19.70
2022-08-22T00:28:20.200Z,19.70
2022-08-22T00:30:55.404Z,19.60
2022-08-22T00:33:35.153Z,19.60
2022-08-22T00:36:17.516Z,19.50
2022-08-22T00:38:49.823Z,19.50
2022-08-22T00:41:37.906Z,19.40
2022-08-22T00:44:41.980Z,19.30
2022-08-22T00:47:37.340Z,19.30
2022-08-22T00:50:28.534Z,19.30
2022-08-22T00:53:25.544Z,19.20
2022-08-22T00:56:08.342Z,19.20
2022-08-22T00:59:01.219Z,19.20
2022-08-22T01:01:58.998Z,19.10
2022-08-22T01:04:49.935Z,19.00
2022-08-22T01:07:38.300Z,19.00
2022-08-22T01:10:27.514Z,19.00
2022-08-22T01:13:20.439Z,18.90
2022-08-22T01:15:55.286Z,18.90
2022-08-22T01:18:58.841Z,18.90
2022-08-22T01:22:20.121Z,18.80
2022-08-22T01:25:39.821Z,18.80
2022-08-22T01:29:02.047Z,18.70
2022-08-22T01:32:05.643Z,18.70
2022-08-22T01:35:20.461Z,18.70
2022-08-22T01:38:32.523Z,18.60
2022-08-22T01:41:24.807Z,18.60
2022-08-22T01:44:18.098Z,18.60
2022-08-22T01:46:55.380Z,18.60
2022-08-22T01:49:30.110Z,18.50
2022-08-22T01:52:06.744Z,18.50
2022-08-22T01:54:45.908Z,18.40
2022-08-22T01:57:18.730Z,18.40
2022-08-22T01:59:50.074Z,18.40
2022-08-22T02:02:35.851Z,18.40
2022-08-22T02:05:10.346Z,18.30
2022-08-22T02:07:49.121Z,18.30
2022-08-22T02:10:22.207Z,18.30
2022-08-22T02:13:00.922Z,18.20
2022-08-22T02:15:45.110Z,18.20
2022-08-22T02:18:21.893Z,18.20
2022-08-22T02:21:00.106Z,18.20
2022-08-22T02:23:45.570Z,18.10
2022-08-22T02:26:22.076Z,18.10
2022-08-22T02:28:58.066Z,18.10
2022-08-22T02:31:38.155Z,18.10
2022-08-22T02:34:24.250Z,18.00
2022-08-22T02:36:58.256Z,18.00
2022-08-22T02:39:36.791Z,18.00
2022-08-22T02:42:18.310Z,17.90
2022-08-22T02:44:57.195Z,17.90
2022-08-22T02:47:34.511Z,17.90
2022-08-22T02:50:12.941Z,17.90
2022-08-22T02:52:57.186Z,17.80
2022-08-22T02:55:43.689Z,17.80
2022-08-22T02:58:21.005Z,17.70
2022-08-22T03:00:52.809Z,17.70
2022-08-22T03:03:28.790Z,17.70
2022-08-22T03:06:02.273Z,17.70
2022-08-22T03:08:34.475Z,17.60
2022-08-22T03:11:16.968Z,17.70
2022-08-22T03:13:57.022Z,17.60
2022-08-22T03:16:33.913Z,17.50
2022-08-22T03:19:08.454Z,17.50
2022-08-22T03:21:53.451Z,17.50
2022-08-22T03:24:33.303Z,17.50
2022-08-22T03:27:08.873Z,17.40
2022-08-22T03:29:39.573Z,17.40
2022-08-22T03:32:15.843Z,17.40
2022-08-22T03:34:57.482Z,17.40
2022-08-22T03:37:37.491Z,17.40
2022-08-22T03:40:22.829Z,17.30
2022-08-22T03:43:12.767Z,17.30
2022-08-22T03:46:18.283Z,17.30
2022-08-22T03:49:22.758Z,17.20
2022-08-22T03:52:07.737Z,17.20
2022-08-22T03:55:08.454Z,17.20
2022-08-22T03:58:17.160Z,17.10
2022-08-22T04:01:22.858Z,17.10
2022-08-22T04:04:22.556Z,17.00
2022-08-22T04:07:28.289Z,17.00
2022-08-22T04:10:27.751Z,17.00
2022-08-22T04:13:31.335Z,16.90
2022-08-22T04:16:29.901Z,16.90
2022-08-22T04:19:15.972Z,16.90
2022-08-22T04:22:12.142Z,16.90
2022-08-22T04:25:07.595Z,16.80
2022-08-22T04:27:42.207Z,16.90
2022-08-22T04:30:22.936Z,16.80
2022-08-22T04:32:58.217Z,16.80
2022-08-22T04:35:32.610Z,16.80
2022-08-22T04:38:05.653Z,16.80
2022-08-22T04:40:39.581Z,16.80
2022-08-22T04:43:15.744Z,16.80
2022-08-22T04:45:52.974Z,16.70
2022-08-22T04:48:30.394Z,16.80
2022-08-22T04:51:03.136Z,16.70
2022-08-22T04:53:57.375Z,16.70
2022-08-22T04:56:34.472Z,16.70
2022-08-22T04:59:10.311Z,16.70
2022-08-22T05:01:47.326Z,16.70
2022-08-22T05:04:23.071Z,16.70
2022-08-22T05:06:55.338Z,16.70
2022-08-22T05:09:29.965Z,16.70
2022-08-22T05:12:04.999Z,16.80
2022-08-22T05:14:39.434Z,16.80
2022-08-22T05:17:16.967Z,16.80
2022-08-22T05:19:50.649Z,16.80
2022-08-22T05:22:24.614Z,16.80
2022-08-22T05:24:57.191Z,16.90
2022-08-22T05:27:27.795Z,17.00
2022-08-22T05:30:02.142Z,17.00
2022-08-22T05:32:40.863Z,17.00
2022-08-22T05:35:10.605Z,17.00
2022-08-22T05:37:45.813Z,17.10
2022-08-22T05:40:21.453Z,17.10
2022-08-22T05:42:49.998Z,17.20
2022-08-22T05:45:20.143Z,17.20
2022-08-22T05:47:53.578Z,17.30
2022-08-22T05:50:35.614Z,17.30
2022-08-22T05:53:10.333Z,17.40
2022-08-22T05:55:47.635Z,17.50
2022-08-22T05:58:38.027Z,17.50
2022-08-22T06:01:22.171Z,17.60
2022-08-22T06:04:00.284Z,17.70
2022-08-22T06:06:30.649Z,17.70
2022-08-22T06:09:04.026Z,17.80
2022-08-22T06:11:40.295Z,17.80
2022-08-22T06:14:14.951Z,17.80
2022-08-22T06:16:48.902Z,17.80
2022-08-22T06:19:20.754Z,17.90
2022-08-22T06:21:51.724Z,17.90
2022-08-22T06:24:25.174Z,17.90
2022-08-22T06:26:58.158Z,18.00
2022-08-22T06:29:35.080Z,18.00
2022-08-22T06:32:14.279Z,18.10
2022-08-22T06:34:47.397Z,18.10
2022-08-22T06:37:24.164Z,18.20
2022-08-22T06:39:55.701Z,18.20
2022-08-22T06:42:28.243Z,18.30
2022-08-22T06:45:02.841Z,18.40
2022-08-22T06:47:37.851Z,18.40
2022-08-22T06:50:16.548Z,18.60
2022-08-22T06:52:54.787Z,18.60
2022-08-22T06:55:27.327Z,18.70
2022-08-22T06:57:58.774Z,18.70
2022-08-22T07:00:29.328Z,18.80
2022-08-22T07:03:01.565Z,18.80
2022-08-22T07:05:36.945Z,19.00
2022-08-22T07:08:10.001Z,19.10
2022-08-22T07:10:42.334Z,19.20
2022-08-22T07:13:16.029Z,19.30
2022-08-22T07:15:44.989Z,19.40
2022-08-22T07:18:19.872Z,19.50
2022-08-22T07:20:55.032Z,19.70
2022-08-22T07:23:32.598Z,19.90
2022-08-22T07:26:18.657Z,20.00
2022-08-22T07:28:58.570Z,20.10
2022-08-22T07:31:35.122Z,20.20
2022-08-22T07:34:23.148Z,20.30
2022-08-22T07:37:00.458Z,20.30
2022-08-22T07:39:33.967Z,20.40
2022-08-22T07:42:10.426Z,20.50
2022-08-22T07:45:05.213Z,20.50
2022-08-22T07:47:49.186Z,20.60
2022-08-22T07:50:25.331Z,20.60
2022-08-22T07:52:59.837Z,20.60
2022-08-22T07:55:28.628Z,20.60
2022-08-22T07:58:00.686Z,20.60
2022-08-22T08:00:30.030Z,20.70
2022-08-22T08:03:05.747Z,20.70
2022-08-22T08:05:39.154Z,20.80
2022-08-22T08:08:19.868Z,20.90
2022-08-22T08:10:51.284Z,20.90
2022-08-22T08:13:25.661Z,21.00
2022-08-22T08:15:54.545Z,21.00
2022-08-22T08:18:25.984Z,21.10
2022-08-22T08:20:58.699Z,21.10
2022-08-22T08:23:31.511Z,21.20
2022-08-22T08:26:06.192Z,21.20
2022-08-22T08:28:40.819Z,21.20
2022-08-22T08:31:21.895Z,21.30
2022-08-22T08:33:54.411Z,21.30
2022-08-22T08:36:36.857Z,21.40
2022-08-22T08:39:14.487Z,21.40
2022-08-22T08:42:23.286Z,21.50
2022-08-22T08:45:18.993Z,21.60
2022-08-22T08:48:24.251Z,21.70
2022-08-22T08:51:09.821Z,21.80
2022-08-22T08:53:58.534Z,21.90
2022-08-22T08:56:36.918Z,22.00
2022-08-22T08:59:19.114Z,22.10
2022-08-22T09:02:13.713Z,22.20
2022-08-22T09:05:21.621Z,22.30
2022-08-22T09:08:11.997Z,22.40
2022-08-22T09:11:12.064Z,22.50
2022-08-22T09:13:55.674Z,22.50
2022-08-22T09:16:46.261Z,22.60
2022-08-22T09:19:56.493Z,22.70
2022-08-22T09:22:50.743Z,22.80
2022-08-22T09:25:24.924Z,22.80
2022-08-22T09:28:00.960Z,22.90
2022-08-22T09:30:56.716Z,23.00
2022-08-22T09:33:36.400Z,23.10
2022-08-22T09:36:12.674Z,23.20
2022-08-22T09:38:50.864Z,23.30
2022-08-22T09:41:33.742Z,23.40
2022-08-22T09:44:13.296Z,23.50
2022-08-22T09:46:56.286Z,23.50
2022-08-22T09:49:34.859Z,23.50
2022-08-22T09:52:31.981Z,23.60
2022-08-22T09:55:11.803Z,23.60
2022-08-22T09:57:52.014Z,23.60
2022-08-22T10:00:32.453Z,23.60
2022-08-22T10:03:12.288Z,23.70
2022-08-22T10:05:48.220Z,23.80
2022-08-22T10:08:45.759Z,23.80
2022-08-22T10:11:24.579Z,23.90
2022-08-22T10:14:01.167Z,23.90
2022-08-22T10:16:52.158Z,23.90
2022-08-22T10:19:29.648Z,23.90
2022-08-22T10:22:22.311Z,23.80
2022-08-22T10:25:01.316Z,23.80
2022-08-22T10:27:44.794Z,23.90
2022-08-22T10:30:18.041Z,24.00
2022-08-22T10:32:58.669Z,24.10
2022-08-22T10:35:33.912Z,24.20
2022-08-22T10:38:11.104Z,24.30
2022-08-22T10:40:49.270Z,24.50
2022-08-22T10:43:28.735Z,24.50
2022-08-22T10:46:04.179Z,24.50
2022-08-22T10:48:47.859Z,24.60
2022-08-22T10:51:30.201Z,24.60
2022-08-22T10:54:19.952Z,24.70
2022-08-22T10:56:56.553Z,24.90
2022-08-22T10:59:40.329Z,25.00
2022-08-22T11:02:39.476Z,25.10
2022-08-22T11:05:24.640Z,25.10
2022-08-22T11:08:06.413Z,25.10
2022-08-22T11:10:52.296Z,25.20
2022-08-22T11:13:28.989Z,25.40
2022-08-22T11:16:04.292Z,25.50
2022-08-22T11:19:01.908Z,25.60
2022-08-22T11:21:45.852Z,25.80
2022-08-22T11:25:07.741Z,25.80
2022-08-22T11:27:48.653Z,26.00
2022-08-22T11:30:21.792Z,26.00
2022-08-22T11:33:14.614Z,26.20
2022-08-22T11:35:45.514Z,26.30
2022-08-22T11:38:32.083Z,26.30
2022-08-22T11:41:10.519Z,26.30
2022-08-22T11:43:48.870Z,26.40
2022-08-22T11:46:26.079Z,26.40
2022-08-22T11:49:07.581Z,26.40
2022-08-22T11:52:10.569Z,26.40
2022-08-22T11:55:07.106Z,26.50
2022-08-22T11:57:44.937Z,26.60
2022-08-22T12:00:26.315Z,26.60
2022-08-22T12:03:30.332Z,26.60
2022-08-22T12:06:06.128Z,26.70
2022-08-22T12:09:20.070Z,26.70
2022-08-22T12:12:09.211Z,26.70
2022-08-22T12:14:43.702Z,26.80
2022-08-22T12:17:51.033Z,26.90
2022-08-22T12:20:45.343Z,26.90
2022-08-22T12:23:49.269Z,27.00
2022-08-22T12:26:30.877Z,27.00
2022-08-22T12:29:17.061Z,27.10
2022-08-22T12:32:34.015Z,27.20
2022-08-22T12:35:30.002Z,27.30
2022-08-22T12:38:28.798Z,27.40
2022-08-22T12:41:40.043Z,27.40
2022-08-22T12:44:28.307Z,27.40
2022-08-22T12:47:11.254Z,27.50
2022-08-22T12:49:56.535Z,27.50
2022-08-22T12:52:45.716Z,27.40
2022-08-22T12:55:27.411Z,27.40
2022-08-22T12:58:07.815Z,27.40
2022-08-22T13:00:40.265Z,27.40
2022-08-22T13:03:22.299Z,27.50
2022-08-22T13:05:59.155Z,27.50
2022-08-22T13:08:32.289Z,27.60
2022-08-22T13:11:03.141Z,27.60
2022-08-22T13:13:40.881Z,27.60
2022-08-22T13:16:12.018Z,27.70
2022-08-22T13:18:53.476Z,27.80
2022-08-22T13:21:31.840Z,27.90
2022-08-22T13:24:10.797Z,28.00
2022-08-22T13:26:49.494Z,28.00
2022-08-22T13:29:26.115Z,28.00
2022-08-22T13:32:01.498Z,28.10
2022-08-22T13:34:40.562Z,28.20
2022-08-22T13:37:16.701Z,28.30
2022-08-22T13:39:48.967Z,28.40
2022-08-22T13:42:27.813Z,28.40
2022-08-22T13:45:04.285Z,28.40
2022-08-22T13:47:39.497Z,28.40
2022-08-22T13:50:15.003Z,28.40
2022-08-22T13:52:52.432Z,28.50
2022-08-22T13:55:30.805Z,28.50
2022-08-22T13:58:06.760Z,28.60
2022-08-22T14:01:28.287Z,28.60
2022-08-22T14:04:00.045Z,28.60
2022-08-22T14:06:38.342Z,28.50
2022-08-22T14:09:17.361Z,28.50
2022-08-22T14:12:12.104Z,28.40
2022-08-22T14:14:46.009Z,28.30
2022-08-22T14:17:20.970Z,28.30
2022-08-22T14:19:59.643Z,28.20
2022-08-22T14:22:36.845Z,28.30
2022-08-22T14:25:10.941Z,28.40
2022-08-22T14:27:43.927Z,28.40
2022-08-22T14:30:17.008Z,28.30
2022-08-22T14:32:51.394Z,28.40
2022-08-22T14:35:35.099Z,28.50
2022-08-22T14:38:27.423Z,28.50
2022-08-22T14:41:03.172Z,28.50
2022-08-22T14:43:52.955Z,28.50
2022-08-22T14:46:26.932Z,28.40
2022-08-22T14:49:25.318Z,28.30
2022-08-22T14:52:01.207Z,28.20
2022-08-22T14:54:34.519Z,28.00
2022-08-22T14:57:10.418Z,27.90
2022-08-22T14:59:50.156Z,27.90
2022-08-22T15:02:26.188Z,27.90
2022-08-22T15:05:01.471Z,27.90
2022-08-22T15:07:33.364Z,27.80
2022-08-22T15:10:11.998Z,27.90
2022-08-22T15:12:49.847Z,27.90
2022-08-22T15:15:32.567Z,28.00
2022-08-22T15:18:18.297Z,27.90
2022-08-22T15:20:52.079Z,27.90
2022-08-22T15:23:24.492Z,27.90
2022-08-22T15:26:03.830Z,28.00
2022-08-22T15:28:52.277Z,28.00
2022-08-22T15:31:22.845Z,28.10
2022-08-22T15:33:53.995Z,28.00
2022-08-22T15:36:27.128Z,28.00
2022-08-22T15:39:18.832Z,27.90
2022-08-22T15:41:51.615Z,27.80
2022-08-22T15:44:32.934Z,27.80
2022-08-22T15:47:24.115Z,27.80
2022-08-22T15:49:58.842Z,27.70
2022-08-22T15:52:30.695Z,27.70
2022-08-22T15:55:29.356Z,27.80
2022-08-22T15:58:05.621Z,27.70
2022-08-22T16:00:43.777Z,27.70
2022-08-22T16:03:24.564Z,27.70
2022-08-22T16:05:58.837Z,27.80
2022-08-22T16:08:32.831Z,27.90
2022-08-22T16:11:32.994Z,27.90
2022-08-22T16:14:22.347Z,28.00
2022-08-22T16:16:58.252Z,28.00
2022-08-22T16:19:28.628Z,28.00
2022-08-22T16:22:14.147Z,27.90
2022-08-22T16:25:10.716Z,28.00
2022-08-22T16:27:57.237Z,28.00
2022-08-22T16:30:36.889Z,27.90
2022-08-22T16:33:07.028Z,27.90
2022-08-22T16:36:24.213Z,27.80
2022-08-22T16:38:56.395Z,27.80
2022-08-22T16:41:32.298Z,27.80
2022-08-22T16:44:41.401Z,27.70
2022-08-22T16:47:17.959Z,27.60
2022-08-22T16:50:09.175Z,27.60
2022-08-22T16:52:53.722Z,27.70
2022-08-22T16:56:04.345Z,27.70
2022-08-22T16:59:19.304Z,27.60
2022-08-22T17:02:12.435Z,27.60
2022-08-22T17:04:55.147Z,27.60
2022-08-22T17:07:36.479Z,27.50
2022-08-22T17:10:36.449Z,27.50
2022-08-22T17:13:18.402Z,27.40
2022-08-22T17:16:02.786Z,27.30
2022-08-22T17:18:48.427Z,27.30
2022-08-22T17:21:26.143Z,27.20
2022-08-22T17:24:06.883Z,27.20
2022-08-22T17:26:56.491Z,27.10
2022-08-22T17:29:41.912Z,27.00
2022-08-22T17:32:18.056Z,26.90
2022-08-22T17:35:00.077Z,26.80
2022-08-22T17:37:44.834Z,26.70
2022-08-22T17:40:29.545Z,26.60
2022-08-22T17:43:33.468Z,26.50
2022-08-22T17:46:41.217Z,26.40
2022-08-22T17:49:25.401Z,26.40
2022-08-22T17:52:00.760Z,26.30
2022-08-22T17:54:40.339Z,26.20
2022-08-22T17:57:13.214Z,26.20
2022-08-22T17:59:50.642Z,26.10
2022-08-22T18:02:27.957Z,26.00
2022-08-22T18:05:04.194Z,26.00
2022-08-22T18:07:50.169Z,25.90
2022-08-22T18:10:31.906Z,25.80
2022-08-22T18:13:08.890Z,25.80
2022-08-22T18:15:45.743Z,25.80
2022-08-22T18:18:26.988Z,25.80
2022-08-22T18:21:07.860Z,25.70
2022-08-22T18:23:40.822Z,25.60
2022-08-22T18:26:24.687Z,25.60
2022-08-22T18:29:01.289Z,25.60
2022-08-22T18:31:47.487Z,25.50
2022-08-22T18:34:26.539Z,25.50
2022-08-22T18:37:02.935Z,25.50
2022-08-22T18:39:43.199Z,25.50
2022-08-22T18:42:29.210Z,25.40
2022-08-22T18:44:57.795Z,25.40
2022-08-22T18:47:32.641Z,25.30
2022-08-22T18:50:29.674Z,25.20
2022-08-22T18:53:01.149Z,25.20
2022-08-22T18:55:46.670Z,25.10
2022-08-22T18:58:58.928Z,25.00
2022-08-22T19:01:48.598Z,25.00
2022-08-22T19:04:55.761Z,24.90
2022-08-22T19:07:45.293Z,24.80
2022-08-22T19:10:41.548Z,24.80
2022-08-22T19:13:45.753Z,24.70
2022-08-22T19:16:32.919Z,24.60
2022-08-22T19:19:04.467Z,24.60
2022-08-22T19:22:06.135Z,24.50
2022-08-22T19:24:57.988Z,24.40
2022-08-22T19:27:31.536Z,24.30
2022-08-22T19:30:07.160Z,24.20
2022-08-22T19:33:12.172Z,24.20
2022-08-22T19:36:02.680Z,24.10
2022-08-22T19:38:57.783Z,24.00
2022-08-22T19:41:47.173Z,23.90
2022-08-22T19:44:37.596Z,23.90
2022-08-22T19:47:36.080Z,23.80
2022-08-22T19:50:13.862Z,23.80
2022-08-22T19:52:56.668Z,23.80
2022-08-22T19:55:34.285Z,23.70
2022-08-22T19:58:16.665Z,23.70
2022-08-22T20:00:54.546Z,23.60
2022-08-22T20:03:37.524Z,23.50
2022-08-22T20:06:33.556Z,23.50
2022-08-22T20:09:22.410Z,23.40
2022-08-22T20:12:05.130Z,23.40
2022-08-22T20:14:38.346Z,23.30
2022-08-22T20:17:13.261Z,23.30
2022-08-22T20:22:46.566Z,23.20
2022-08-22T20:25:43.061Z,23.10
2022-08-22T20:28:32.196Z,23.00
2022-08-22T20:31:03.314Z,23.00
2022-08-22T20:33:36.278Z,22.90
2022-08-22T20:36:28.168Z,22.90
2022-08-22T20:39:01.537Z,22.80
2022-08-22T20:41:35.459Z,22.70
2022-08-22T20:44:12.242Z,22.70
2022-08-22T20:46:53.849Z,22.60
2022-08-22T20:49:29.348Z,22.60
2022-08-22T20:52:06.993Z,22.50
2022-08-22T20:54:38.700Z,22.50
2022-08-22T20:57:16.019Z,22.40
2022-08-22T20:59:53.456Z,22.30
2022-08-22T21:02:28.522Z,22.30
2022-08-22T21:05:02.086Z,22.20
2022-08-22T21:07:34.062Z,22.20
2022-08-22T21:10:24.812Z,22.20
2022-08-22T21:13:05.152Z,22.20
2022-08-22T21:15:48.299Z,22.10
2022-08-22T21:18:27.875Z,22.10
2022-08-22T21:21:17.070Z,22.10
2022-08-22T21:23:51.824Z,22.00
2022-08-22T21:26:25.126Z,22.00
2022-08-22T21:28:59.971Z,21.90
2022-08-22T21:31:32.284Z,21.90
2022-08-22T21:34:05.753Z,21.90
2022-08-22T21:36:39.494Z,21.90
2022-08-22T21:39:20.570Z,21.80
2022-08-22T21:41:52.497Z,21.80
2022-08-22T21:44:29.618Z,21.80
2022-08-22T21:46:58.980Z,21.80
2022-08-22T21:49:29.355Z,21.70
2022-08-22T21:51:57.681Z,21.70
2022-08-22T21:54:41.635Z,21.70
2022-08-22T21:57:19.615Z,21.70
2022-08-22T21:59:51.895Z,21.70
2022-08-22T22:02:31.231Z,21.60
2022-08-22T22:05:00.949Z,21.60
2022-08-22T22:07:30.510Z,21.60
2022-08-22T22:10:00.228Z,21.50
2022-08-22T22:12:28.829Z,21.50
2022-08-22T22:14:57.943Z,21.50
2022-08-22T22:17:26.182Z,21.50
2022-08-22T22:19:57.510Z,21.40
2022-08-22T22:22:27.928Z,21.40
2022-08-22T22:24:56.149Z,21.40
2022-08-22T22:27:25.890Z,21.30
2022-08-22T22:29:54.088Z,21.30
2022-08-22T22:32:22.278Z,21.30
2022-08-22T22:34:52.973Z,21.30
2022-08-22T22:37:21.187Z,21.30
2022-08-22T22:39:51.735Z,21.20
2022-08-22T22:42:20.655Z,21.20
2022-08-22T22:44:50.822Z,21.20
2022-08-22T22:47:19.040Z,21.20
2022-08-22T22:49:47.350Z,21.20
2022-08-22T22:52:15.589Z,21.20
2022-08-22T22:54:43.762Z,21.20
2022-08-22T22:57:14.573Z,21.20
2022-08-22T22:59:49.315Z,21.20
2022-08-22T23:02:23.257Z,21.20
2022-08-22T23:04:56.901Z,21.10
2022-08-22T23:07:27.006Z,21.10
2022-08-22T23:09:56.920Z,21.10
2022-08-22T23:12:28.087Z,21.10
2022-08-22T23:14:57.680Z,21.10
2022-08-22T23:17:25.832Z,21.00
2022-08-22T23:19:54.047Z,21.00
2022-08-22T23:22:22.220Z,21.00
2022-08-22T23:24:50.961Z,20.90
2022-08-22T23:27:19.537Z,20.90
2022-08-22T23:29:50.556Z,20.90
2022-08-22T23:37:51.972Z,20.80
2022-08-22T23:40:23.686Z,20.80
2022-08-22T23:42:51.878Z,20.80
2022-08-22T23:45:21.504Z,20.80
2022-08-22T23:47:49.789Z,20.80
2022-08-22T23:50:18.032Z,20.80
2022-08-22T23:52:46.273Z,20.70
2022-08-22T23:55:14.662Z,20.70
2022-08-22T23:57:46.483Z,20.70
